Terminal Aerodrome Forecast
Issued by NWS Wichita, KS

Home | Current Version | Previous Version | Graphics & Text | Print | Product List | Glossary On
Versions: 1 2 3 4 5 6 7 8 9 10 11 12 13 14 15 16 17 18 19 20 21 22 23 24 25 26 27 28
000
FTUS43 KICT 200544
TAFICT
TAF
KICT 200544Z 2006/2106 03011KT 3SM -FZDZ SCT003 OVC005
     FM201000 36013KT 3SM -FZRA VCTS SCT005 OVC008CB
     FM201300 35016G23KT P6SM SCT015 OVC025
     FM201800 35018G24KT P6SM SCT025 BKN050=

USA.gov is the U.S. government's official web portal to all federal, state and local government web resources and services.